Time;durP1;ratioP1;P1;durP2;ratioP2;P2;SDS_P1;SDS_P2;PMS_P1;PMS_P2;Temp;Humidity;BMP_temperature;BMP_pressure;BME280_temperature;BME280_humidity;BME280_pressure;Samples;Min_cycle;Max_cycle;Signal;HPM_P1;HPM_P2
2023/08/30 00:01:14;;;;;;;4.97;1.70;;;;;;;;;;5015900;28;20053;-64
2023/08/30 00:04:15;;;;;;;5.32;2.10;;;;;;;;;;5019433;28;20068;-68
2023/08/30 00:06:41;;;;;;;7.05;1.70;;;;;;;;;;5025379;28;20053;-66
2023/08/30 00:09:07;;;;;;;5.70;1.70;;;;;;;;;;5023423;28;20060;-65
2023/08/30 00:11:34;;;;;;;4.65;2.10;;;;;;;;;;5024362;28;20053;-65
2023/08/30 00:14:07;;;;;;;4.82;1.83;;;;;;;;;;5020184;28;20382;-64
2023/08/30 00:16:35;;;;;;;3.35;1.60;;;;;;;;;;5017101;28;20110;-65
2023/08/30 00:19:01;;;;;;;3.58;1.58;;;;;;;;;;5025985;28;20077;-65
2023/08/30 00:21:28;;;;;;;4.35;1.90;;;;;;;;;;5020520;28;20046;-67
2023/08/30 00:23:53;;;;;;;6.55;2.08;;;;;;;;;;5021639;28;20045;-66
2023/08/30 00:26:27;;;;;;;;;;;;;;;;;;5006307;28;20072;-64
2023/08/30 00:28:54;;;;;;;3.90;1.65;;;;;;;;;;5021965;28;19928;-64
2023/08/30 00:31:20;;;;;;;2.92;1.73;;;;;;;;;;5017498;28;20093;-64
2023/08/30 00:33:45;;;;;;;3.75;1.50;;;;;;;;;;4996116;28;20135;-64
2023/08/30 00:36:12;;;;;;;4.00;1.60;;;;;;;;;;5015806;28;20064;-66
2023/08/30 00:38:37;;;;;;;3.45;1.65;;;;;;;;;;5016644;28;20045;-65
2023/08/30 00:41:04;;;;;;;5.70;1.77;;;;;;;;;;5020099;28;20046;-65
2023/08/30 00:43:30;;;;;;;6.07;1.90;;;;;;;;;;5020411;28;20529;-64
2023/08/30 00:45:56;;;;;;;7.78;2.22;;;;;;;;;;5019975;28;20049;-64
2023/08/30 00:48:22;;;;;;;5.80;2.10;;;;;;;;;;5013066;28;20049;-65
2023/08/30 00:50:49;;;;;;;5.43;2.20;;;;;;;;;;5022818;28;20058;-66
2023/08/30 00:53:15;;;;;;;6.20;1.85;;;;;;;;;;5016139;28;20072;-64
2023/08/30 00:55:42;;;;;;;4.15;1.95;;;;;;;;;;5021988;28;20053;-65
2023/08/30 00:58:10;;;;;;;3.60;2.03;;;;;;;;;;5020304;28;20053;-66
2023/08/30 01:00:38;;;;;;;4.80;2.20;;;;;;;;;;5025097;28;20057;-65
2023/08/30 01:03:06;;;;;;;6.22;2.25;;;;;;;;;;5016956;28;20289;-66
2023/08/30 01:05:32;;;;;;;4.35;1.80;;;;;;;;;;5020425;28;20077;-65
2023/08/30 01:08:00;;;;;;;5.60;1.88;;;;;;;;;;5025245;28;20544;-65
2023/08/30 01:10:42;;;;;;;5.40;1.90;;;;;;;;;;5023339;28;20108;-65
2023/08/30 01:13:13;;;;;;;3.85;2.03;;;;;;;;;;5019350;28;20049;-64
2023/08/30 01:15:40;;;;;;;5.78;1.92;;;;;;;;;;5026465;28;20053;-67
2023/08/30 01:18:07;;;;;;;6.35;1.75;;;;;;;;;;5027852;28;20050;-65
2023/08/30 01:20:37;;;;;;;5.85;2.42;;;;;;;;;;5021709;28;20107;-66
2023/08/30 01:23:09;;;;;;;6.78;2.38;;;;;;;;;;5025596;28;20152;-65
2023/08/30 01:26:33;;;;;;;5.10;2.60;;;;;;;;;;5002568;28;20057;-65
2023/08/30 01:30:14;;;;;;;10.10;3.08;;;;;;;;;;5020866;28;20130;-64
2023/08/30 01:33:55;;;;;;;6.25;2.25;;;;;;;;;;5023983;28;20220;-65
2023/08/30 01:37:34;;;;;;;5.43;2.60;;;;;;;;;;5021273;28;20041;-65
2023/08/30 01:41:15;;;;;;;6.32;2.78;;;;;;;;;;5021435;28;20049;-65
2023/08/30 01:44:57;;;;;;;7.28;2.72;;;;;;;;;;5026530;28;20073;-64
2023/08/30 01:48:36;;;;;;;7.15;2.20;;;;;;;;;;5026045;28;20523;-65
2023/08/30 01:52:16;;;;;;;6.22;2.08;;;;;;;;;;5027042;28;20523;-65
2023/08/30 01:55:57;;;;;;;18.95;2.70;;;;;;;;;;5012672;28;20092;-64
2023/08/30 01:59:37;;;;;;;5.72;2.30;;;;;;;;;;5028018;28;20457;-64
2023/08/30 02:03:17;;;;;;;7.43;2.65;;;;;;;;;;5023941;28;20046;-65
2023/08/30 02:06:38;;;;;;;5.13;2.72;;;;;;;;;;5019404;28;20196;-65
2023/08/30 02:09:38;;;;;;;7.50;3.10;;;;;;;;;;5027306;28;20061;-65
2023/08/30 02:13:22;;;;;;;7.43;2.78;;;;;;;;;;5022164;28;20102;-65
2023/08/30 02:17:02;;;;;;;7.70;2.50;;;;;;;;;;5024921;28;20123;-65
2023/08/30 02:20:43;;;;;;;6.28;3.05;;;;;;;;;;5024494;28;20042;-65
2023/08/30 02:24:23;;;;;;;5.32;2.20;;;;;;;;;;5020782;28;20045;-64
2023/08/30 02:28:03;;;;;;;6.25;2.17;;;;;;;;;;5024677;28;20095;-64
2023/08/30 02:31:44;;;;;;;4.35;2.38;;;;;;;;;;5023063;28;20049;-64
2023/08/30 02:34:44;;;;;;;6.05;1.90;;;;;;;;;;5024909;28;20103;-64
2023/08/30 02:37:10;;;;;;;5.07;2.20;;;;;;;;;;5023936;28;20460;-64
2023/08/30 02:39:36;;;;;;;6.25;1.90;;;;;;;;;;5023205;28;20062;-64
2023/08/30 02:42:02;;;;;;;3.33;2.00;;;;;;;;;;5027620;28;20409;-66
2023/08/30 02:44:28;;;;;;;4.70;2.13;;;;;;;;;;5023277;28;20749;-65
2023/08/30 02:46:54;;;;;;;5.13;1.98;;;;;;;;;;5020664;28;20119;-65
2023/08/30 02:49:20;;;;;;;4.55;1.70;;;;;;;;;;5024207;28;20448;-65
2023/08/30 02:51:46;;;;;;;3.95;1.83;;;;;;;;;;5007327;28;20076;-63
2023/08/30 02:54:13;;;;;;;6.05;1.83;;;;;;;;;;5026773;28;20473;-65
2023/08/30 02:56:43;;;;;;;5.38;1.70;;;;;;;;;;5023131;28;20058;-65
2023/08/30 02:59:09;;;;;;;4.82;1.92;;;;;;;;;;5021248;28;20049;-64
2023/08/30 03:01:35;;;;;;;3.88;1.70;;;;;;;;;;5023339;28;20061;-64
2023/08/30 03:04:01;;;;;;;4.95;1.73;;;;;;;;;;5024431;28;20123;-64
2023/08/30 03:06:27;;;;;;;4.95;1.60;;;;;;;;;;5015213;28;20045;-66
2023/08/30 03:08:56;;;;;;;2.47;1.50;;;;;;;;;;5026522;28;20500;-63
2023/08/30 03:11:22;;;;;;;8.73;2.00;;;;;;;;;;5024667;28;20068;-64
2023/08/30 03:13:48;;;;;;;4.80;2.00;;;;;;;;;;5027601;28;20053;-64
2023/08/30 03:16:15;;;;;;;3.40;1.85;;;;;;;;;;5018214;28;20353;-64
2023/08/30 03:18:42;;;;;;;5.60;2.00;;;;;;;;;;5027339;28;20104;-65
2023/08/30 03:21:08;;;;;;;3.67;1.92;;;;;;;;;;5028495;28;20049;-66
2023/08/30 03:23:35;;;;;;;4.32;1.75;;;;;;;;;;5026445;28;20293;-66
2023/08/30 03:26:12;;;;;;;6.20;1.77;;;;;;;;;;5018678;28;20532;-65
2023/08/30 03:28:38;;;;;;;2.95;1.83;;;;;;;;;;5020840;28;20054;-66
2023/08/30 03:31:14;;;;;;;6.97;1.85;;;;;;;;;;5023412;28;20107;-65
2023/08/30 03:33:41;;;;;;;3.42;1.83;;;;;;;;;;5012386;28;20046;-64
2023/08/30 03:36:10;;;;;;;3.85;1.80;;;;;;;;;;5023256;28;20441;-65
2023/08/30 03:39:15;;;;;;;4.25;1.58;;;;;;;;;;5012169;28;20315;-63
2023/08/30 03:42:56;;;;;;;4.40;1.70;;;;;;;;;;5015890;28;20479;-63
2023/08/30 03:46:36;;;;;;;3.13;1.58;;;;;;;;;;5016216;28;20046;-65
2023/08/30 03:50:16;;;;;;;4.80;1.80;;;;;;;;;;5017989;28;20053;-64
2023/08/30 03:53:57;;;;;;;4.47;2.03;;;;;;;;;;5020511;28;20056;-69
2023/08/30 03:57:37;;;;;;;7.10;1.67;;;;;;;;;;5015748;28;20100;-65
2023/08/30 04:01:17;;;;;;;6.57;1.90;;;;;;;;;;5017578;28;20081;-67
2023/08/30 04:04:58;;;;;;;5.35;1.73;;;;;;;;;;5013655;28;20125;-64
2023/08/30 04:08:38;;;;;;;3.40;1.88;;;;;;;;;;5019617;28;20080;-65
2023/08/30 04:12:18;;;;;;;5.97;1.98;;;;;;;;;;5022405;28;20275;-66
2023/08/30 04:15:59;;;;;;;7.97;2.00;;;;;;;;;;5019219;28;20131;-64
2023/08/30 04:19:39;;;;;;;8.60;1.90;;;;;;;;;;5019212;28;20057;-64
2023/08/30 04:23:20;;;;;;;3.92;1.88;;;;;;;;;;5021067;28;20543;-64
2023/08/30 04:27:00;;;;;;;6.13;2.13;;;;;;;;;;5019629;28;20045;-63
2023/08/30 04:30:40;;;;;;;5.10;1.95;;;;;;;;;;5015102;28;20397;-64
2023/08/30 04:34:22;;;;;;;4.10;2.00;;;;;;;;;;5018766;28;20913;-64
2023/08/30 04:38:01;;;;;;;4.93;1.90;;;;;;;;;;5021736;28;20046;-65
2023/08/30 04:41:43;;;;;;;3.22;1.63;;;;;;;;;;5019170;28;20489;-63
2023/08/30 04:45:23;;;;;;;2.67;1.70;;;;;;;;;;5023111;28;20129;-66
2023/08/30 04:49:04;;;;;;;3.53;1.98;;;;;;;;;;5017003;28;20489;-64
2023/08/30 04:52:44;;;;;;;2.90;1.75;;;;;;;;;;5027972;28;20107;-64
2023/08/30 04:56:30;;;;;;;3.20;1.73;;;;;;;;;;5022210;28;20425;-67
2023/08/30 05:00:11;;;;;;;4.65;1.90;;;;;;;;;;5022875;28;20714;-64
2023/08/30 05:03:51;;;;;;;4.93;1.83;;;;;;;;;;5021264;28;20396;-66
2023/08/30 05:07:31;;;;;;;3.58;1.70;;;;;;;;;;5019881;28;20030;-66
2023/08/30 05:11:15;;;;;;;3.28;1.70;;;;;;;;;;5027864;28;20081;-66
2023/08/30 05:14:55;;;;;;;3.72;2.00;;;;;;;;;;5028260;28;20412;-62
2023/08/30 05:18:36;;;;;;;3.83;1.83;;;;;;;;;;5024881;28;20057;-63
2023/08/30 05:22:16;;;;;;;6.10;2.17;;;;;;;;;;5016342;28;20409;-64
2023/08/30 05:25:57;;;;;;;6.10;2.30;;;;;;;;;;5018945;28;20176;-63
2023/08/30 05:29:52;;;;;;;5.93;2.25;;;;;;;;;;5015968;28;20053;-65
2023/08/30 05:33:33;;;;;;;4.82;2.00;;;;;;;;;;5015845;28;20527;-63
2023/08/30 05:37:13;;;;;;;8.00;2.40;;;;;;;;;;5027553;28;20037;-63
2023/08/30 05:40:53;;;;;;;5.28;1.88;;;;;;;;;;5021291;28;20045;-63
2023/08/30 05:44:34;;;;;;;11.18;2.40;;;;;;;;;;4999924;28;20050;-66
2023/08/30 05:48:14;;;;;;;4.57;2.40;;;;;;;;;;5007177;28;20524;-65
2023/08/30 05:51:54;;;;;;;6.20;2.33;;;;;;;;;;5005715;28;20053;-64
2023/08/30 05:55:35;;;;;;;9.25;1.70;;;;;;;;;;4992686;28;20377;-63
2023/08/30 05:59:15;;;;;;;9.18;2.28;;;;;;;;;;5003521;28;20409;-63
2023/08/30 06:02:55;;;;;;;5.60;1.88;;;;;;;;;;4997232;28;20545;-63
2023/08/30 06:06:35;;;;;;;11.43;2.35;;;;;;;;;;5004129;28;20309;-63
2023/08/30 06:10:16;;;;;;;5.78;2.17;;;;;;;;;;4998910;28;20056;-64
2023/08/30 06:13:58;;;;;;;12.35;2.60;;;;;;;;;;5014199;28;20038;-63
2023/08/30 06:16:57;;;;;;;5.72;2.35;;;;;;;;;;4993948;28;20414;-63
2023/08/30 06:19:23;;;;;;;12.77;2.55;;;;;;;;;;4997108;28;20125;-64
2023/08/30 06:21:49;;;;;;;6.28;2.55;;;;;;;;;;5004977;28;20050;-65
2023/08/30 06:24:15;;;;;;;12.52;3.05;;;;;;;;;;4983436;28;20069;-63
2023/08/30 06:26:42;;;;;;;10.45;2.75;;;;;;;;;;4997373;28;20488;-63
2023/08/30 06:29:08;;;;;;;4.97;2.60;;;;;;;;;;5003782;28;20054;-65
2023/08/30 06:31:34;;;;;;;7.57;2.58;;;;;;;;;;4989993;28;20069;-64
2023/08/30 06:34:01;;;;;;;5.85;2.70;;;;;;;;;;4998020;28;20088;-64
2023/08/30 06:36:27;;;;;;;6.80;2.55;;;;;;;;;;5003575;28;20566;-71
2023/08/30 06:38:53;;;;;;;4.75;2.53;;;;;;;;;;4995043;28;20116;-69
2023/08/30 06:41:58;;;;;;;7.85;2.15;;;;;;;;;;4986004;28;20085;-66
2023/08/30 06:45:40;;;;;;;5.18;2.58;;;;;;;;;;5011390;28;20071;-69
2023/08/30 06:49:20;;;;;;;8.93;2.10;;;;;;;;;;5008734;28;20053;-66
2023/08/30 06:53:01;;;;;;;9.18;2.42;;;;;;;;;;5021435;28;20405;-71
2023/08/30 06:56:41;;;;;;;13.63;2.95;;;;;;;;;;5018314;28;20144;-66
2023/08/30 07:00:21;;;;;;;8.18;2.80;;;;;;;;;;5009154;28;20057;-66
2023/08/30 07:04:02;;;;;;;8.00;2.30;;;;;;;;;;5013103;28;20151;-66
2023/08/30 07:07:42;;;;;;;8.55;2.38;;;;;;;;;;5018645;28;20050;-66
2023/08/30 07:10:48;;;;;;;6.45;3.42;;;;;;;;;;5020899;28;20045;-68
2023/08/30 07:14:28;;;;;;;7.85;2.95;;;;;;;;;;5018303;28;20049;-66
2023/08/30 07:18:12;;;;;;;9.63;2.00;;;;;;;;;;5021240;28;20033;-67
2023/08/30 07:21:52;;;;;;;5.38;2.35;;;;;;;;;;5017690;28;20058;-67
2023/08/30 07:25:36;;;;;;;6.55;2.35;;;;;;;;;;5017862;28;20054;-67
2023/08/30 07:29:14;;;;;;;4.75;2.13;;;;;;;;;;5021382;28;20670;-67
2023/08/30 07:32:55;;;;;;;9.82;2.70;;;;;;;;;;5018745;28;20096;-66
2023/08/30 07:36:35;;;;;;;9.18;2.80;;;;;;;;;;5023029;28;20055;-67
2023/08/30 07:40:15;;;;;;;6.38;2.38;;;;;;;;;;5014687;28;20037;-68
2023/08/30 07:43:56;;;;;;;10.27;2.42;;;;;;;;;;5028041;28;20053;-67
2023/08/30 07:47:39;;;;;;;4.97;1.98;;;;;;;;;;5024628;28;20476;-67
2023/08/30 07:51:19;;;;;;;9.73;2.50;;;;;;;;;;5018875;28;20053;-67
2023/08/30 07:55:00;;;;;;;5.32;2.00;;;;;;;;;;5016545;28;20408;-68
2023/08/30 07:58:40;;;;;;;17.60;2.50;;;;;;;;;;5010455;28;20046;-71
2023/08/30 08:02:20;;;;;;;10.02;2.13;;;;;;;;;;5018287;28;20053;-72
2023/08/30 08:06:03;;;;;;;9.75;1.80;;;;;;;;;;5014560;28;20048;-71
2023/08/30 08:09:43;;;;;;;5.35;2.35;;;;;;;;;;5018668;28;20041;-71
2023/08/30 08:13:24;;;;;;;9.10;1.95;;;;;;;;;;5020465;28;20112;-71
2023/08/30 08:17:04;;;;;;;12.07;2.53;;;;;;;;;;5013356;28;20052;-71
2023/08/30 08:20:45;;;;;;;5.80;2.20;;;;;;;;;;5013111;28;20133;-71
2023/08/30 08:24:27;;;;;;;4.47;1.92;;;;;;;;;;5013182;28;20490;-71
2023/08/30 08:28:07;;;;;;;6.53;1.90;;;;;;;;;;5018881;28;20049;-71
2023/08/30 08:31:48;;;;;;;5.40;1.92;;;;;;;;;;5015951;28;20106;-70
2023/08/30 08:35:29;;;;;;;5.20;2.00;;;;;;;;;;5013991;28;20048;-72
2023/08/30 08:39:09;;;;;;;3.78;1.50;;;;;;;;;;5015998;28;21398;-72
2023/08/30 08:42:55;;;;;;;5.55;1.50;;;;;;;;;;5019871;28;20053;-71
2023/08/30 08:46:33;;;;;;;3.80;1.60;;;;;;;;;;5024312;28;20112;-73
2023/08/30 08:50:14;;;;;;;3.38;1.60;;;;;;;;;;5021105;28;20053;-71
2023/08/30 08:53:54;;;;;;;3.22;1.38;;;;;;;;;;5019937;28;20046;-72
2023/08/30 08:57:34;;;;;;;2.40;1.38;;;;;;;;;;5017848;28;20528;-73
2023/08/30 09:01:15;;;;;;;2.28;1.50;;;;;;;;;;5016631;28;20061;-74
2023/08/30 09:04:15;;;;;;;2.80;1.30;;;;;;;;;;5012872;28;20180;-72
2023/08/30 09:06:44;;;;;;;3.85;1.40;;;;;;;;;;5020279;28;20056;-70
2023/08/30 09:09:10;;;;;;;6.22;1.65;;;;;;;;;;5023661;28;20037;-74
2023/08/30 09:11:37;;;;;;;3.63;1.70;;;;;;;;;;5002527;28;20464;-70
2023/08/30 09:14:04;;;;;;;5.25;1.38;;;;;;;;;;5020544;28;20061;-71
2023/08/30 09:16:30;;;;;;;3.35;1.30;;;;;;;;;;4997189;28;20053;-70
2023/08/30 09:19:04;;;;;;;4.07;1.40;;;;;;;;;;5017089;28;20593;-71
2023/08/30 09:21:34;;;;;;;2.17;1.20;;;;;;;;;;5017749;28;20060;-70
2023/08/30 09:24:02;;;;;;;4.25;1.65;;;;;;;;;;5022448;28;20057;-72
2023/08/30 09:26:33;;;;;;;5.25;1.73;;;;;;;;;;5020912;28;20042;-72
2023/08/30 09:29:07;;;;;;;4.00;1.65;;;;;;;;;;5020781;28;20064;-72
2023/08/30 09:31:40;;;;;;;4.15;1.50;;;;;;;;;;5013385;28;20061;-70
2023/08/30 09:34:06;;;;;;;2.53;1.40;;;;;;;;;;5003626;28;20488;-69
2023/08/30 09:36:38;;;;;;;5.25;1.63;;;;;;;;;;5020972;28;20410;-71
2023/08/30 09:39:13;;;;;;;4.75;1.35;;;;;;;;;;5021069;28;20445;-70
2023/08/30 09:41:44;;;;;;;5.15;1.25;;;;;;;;;;5020257;28;20068;-71
2023/08/30 09:44:15;;;;;;;4.10;1.75;;;;;;;;;;5002087;28;20496;-71
2023/08/30 09:46:54;;;;;;;2.83;1.50;;;;;;;;;;5003463;28;20512;-71
2023/08/30 09:49:26;;;;;;;4.70;1.75;;;;;;;;;;5021306;28;20045;-71
2023/08/30 09:51:54;;;;;;;5.30;1.98;;;;;;;;;;5022345;28;20065;-72
2023/08/30 09:54:28;;;;;;;5.68;1.67;;;;;;;;;;5022522;28;20059;-72
2023/08/30 09:56:57;;;;;;;5.07;1.73;;;;;;;;;;5022908;28;20057;-73
2023/08/30 09:59:23;;;;;;;5.97;2.17;;;;;;;;;;5023298;28;20366;-71
2023/08/30 10:01:50;;;;;;;4.43;1.35;;;;;;;;;;5002901;28;20544;-71
2023/08/30 10:04:18;;;;;;;4.13;1.80;;;;;;;;;;5020547;28;20084;-72
2023/08/30 10:06:46;;;;;;;3.45;1.92;;;;;;;;;;5016982;28;20045;-73
2023/08/30 10:09:12;;;;;;;5.60;2.00;;;;;;;;;;5019793;28;20037;-71
2023/08/30 10:11:39;;;;;;;4.55;1.48;;;;;;;;;;5018002;28;20445;-70
2023/08/30 10:14:08;;;;;;;2.13;1.40;;;;;;;;;;5015596;28;20397;-71
2023/08/30 10:16:42;;;;;;;3.03;1.33;;;;;;;;;;5016387;28;20068;-72
2023/08/30 10:19:10;;;;;;;;;;;;;;;;;;4987251;28;20096;-71
2023/08/30 10:21:38;;;;;;;4.65;1.30;;;;;;;;;;5017790;28;19928;-72
2023/08/30 10:24:08;;;;;;;4.13;1.40;;;;;;;;;;5018981;28;20068;-73
2023/08/30 10:26:39;;;;;;;4.10;1.50;;;;;;;;;;5002693;28;20102;-71
2023/08/30 10:29:08;;;;;;;5.07;2.00;;;;;;;;;;5018934;28;20501;-70
2023/08/30 10:31:34;;;;;;;3.40;1.70;;;;;;;;;;5004295;28;20049;-73
2023/08/30 10:33:59;;;;;;;6.18;1.90;;;;;;;;;;5016528;28;20119;-71
2023/08/30 10:36:27;;;;;;;3.70;1.70;;;;;;;;;;5019830;28;20064;-71
2023/08/30 10:38:54;;;;;;;4.18;1.60;;;;;;;;;;4995999;28;20060;-70
2023/08/30 10:41:26;;;;;;;5.75;1.23;;;;;;;;;;5014643;28;20049;-73
2023/08/30 10:43:55;;;;;;;2.25;1.50;;;;;;;;;;5019000;28;20408;-70
2023/08/30 10:46:33;;;;;;;5.22;1.60;;;;;;;;;;4983022;28;20061;-70
2023/08/30 10:49:14;;;;;;;3.67;1.50;;;;;;;;;;5020306;28;20057;-71
2023/08/30 10:51:44;;;;;;;3.15;1.40;;;;;;;;;;5019092;28;20084;-71
2023/08/30 10:54:17;;;;;;;6.00;1.73;;;;;;;;;;5022676;28;20429;-70
2023/08/30 10:57:00;;;;;;;9.20;2.00;;;;;;;;;;5024550;28;20133;-71
2023/08/30 10:59:27;;;;;;;3.25;1.50;;;;;;;;;;5014496;28;20080;-70
2023/08/30 11:01:53;;;;;;;3.97;1.80;;;;;;;;;;5021682;28;20508;-71
2023/08/30 11:04:21;;;;;;;4.00;1.60;;;;;;;;;;5005466;28;20053;-72
2023/08/30 11:06:50;;;;;;;5.15;1.73;;;;;;;;;;5023430;28;20049;-70
2023/08/30 11:09:20;;;;;;;4.03;1.88;;;;;;;;;;5027723;28;20109;-70
2023/08/30 11:11:54;;;;;;;3.20;1.40;;;;;;;;;;5021624;28;20046;-70
2023/08/30 11:14:20;;;;;;;3.97;1.60;;;;;;;;;;5018470;28;20410;-70
2023/08/30 11:16:46;;;;;;;3.83;1.75;;;;;;;;;;5026448;28;20112;-71
2023/08/30 11:19:13;;;;;;;5.50;1.77;;;;;;;;;;5024813;28;20055;-72
2023/08/30 11:21:43;;;;;;;5.75;2.13;;;;;;;;;;5012054;28;20412;-69
2023/08/30 11:24:09;;;;;;;3.80;1.60;;;;;;;;;;5022535;28;20041;-71
2023/08/30 11:26:35;;;;;;;5.78;1.50;;;;;;;;;;5025073;28;20045;-68
2023/08/30 11:29:08;;;;;;;1.83;1.25;;;;;;;;;;5020052;28;20783;-67
2023/08/30 11:31:35;;;;;;;8.00;1.75;;;;;;;;;;5025655;28;20058;-63
2023/08/30 11:34:03;;;;;;;5.50;2.50;;;;;;;;;;5017325;28;20195;-69
2023/08/30 11:36:32;;;;;;;6.03;2.28;;;;;;;;;;5020556;28;20046;-67
2023/08/30 11:38:58;;;;;;;8.52;2.00;;;;;;;;;;5005603;28;20077;-66
2023/08/30 11:41:26;;;;;;;10.57;2.28;;;;;;;;;;5024367;28;20049;-66
2023/08/30 11:43:54;;;;;;;6.95;2.47;;;;;;;;;;5022220;28;20529;-68
2023/08/30 11:46:21;;;;;;;7.85;2.30;;;;;;;;;;5021280;28;20093;-67
2023/08/30 11:48:48;;;;;;;6.68;2.08;;;;;;;;;;5027456;28;20283;-69
2023/08/30 11:51:14;;;;;;;5.03;2.45;;;;;;;;;;5018664;28;20050;-71
2023/08/30 11:53:42;;;;;;;5.97;2.03;;;;;;;;;;5016123;28;20049;-66
2023/08/30 11:56:09;;;;;;;6.50;1.80;;;;;;;;;;5024706;28;20141;-66
2023/08/30 11:58:36;;;;;;;7.25;1.90;;;;;;;;;;5024376;28;20054;-69
2023/08/30 12:01:23;;;;;;;9.02;2.20;;;;;;;;;;5027311;28;20088;-70
2023/08/30 12:03:50;;;;;;;7.30;2.22;;;;;;;;;;5007511;28;20049;-69
2023/08/30 12:06:17;;;;;;;5.03;2.10;;;;;;;;;;5019526;28;20053;-70
2023/08/30 12:08:43;;;;;;;7.15;2.03;;;;;;;;;;5024449;28;20144;-68
2023/08/30 12:11:20;;;;;;;6.60;1.90;;;;;;;;;;5019377;28;20042;-69
2023/08/30 12:13:47;;;;;;;5.53;1.80;;;;;;;;;;5022119;28;20554;-67
2023/08/30 12:16:20;;;;;;;5.70;1.80;;;;;;;;;;5022612;28;20056;-69
2023/08/30 12:18:46;;;;;;;7.00;1.85;;;;;;;;;;5020620;28;20053;-66
2023/08/30 12:21:14;;;;;;;7.55;1.98;;;;;;;;;;4987571;28;20050;-68
2023/08/30 12:23:40;;;;;;;8.43;1.90;;;;;;;;;;5024923;28;20049;-68
2023/08/30 12:26:08;;;;;;;4.05;1.80;;;;;;;;;;5022974;28;20042;-68
2023/08/30 12:28:36;;;;;;;3.72;1.80;;;;;;;;;;5021101;28;20076;-67
2023/08/30 12:31:12;;;;;;;4.22;1.90;;;;;;;;;;5025894;28;20501;-67
2023/08/30 12:33:40;;;;;;;5.93;1.60;;;;;;;;;;5024066;28;20053;-68
2023/08/30 12:36:06;;;;;;;6.38;1.75;;;;;;;;;;5027118;28;20059;-66
2023/08/30 12:38:33;;;;;;;5.25;1.90;;;;;;;;;;5025223;28;20535;-67
2023/08/30 12:41:02;;;;;;;5.90;1.98;;;;;;;;;;5016108;28;20485;-68
2023/08/30 12:43:29;;;;;;;4.15;1.58;;;;;;;;;;5005790;28;20053;-68
2023/08/30 12:45:55;;;;;;;6.22;1.60;;;;;;;;;;5017420;28;20055;-69
2023/08/30 12:48:37;;;;;;;5.55;2.08;;;;;;;;;;5017338;28;20576;-67
2023/08/30 12:51:03;;;;;;;4.40;1.98;;;;;;;;;;5012330;28;20060;-68
2023/08/30 12:53:29;;;;;;;4.15;1.60;;;;;;;;;;5018633;28;20042;-69
2023/08/30 12:55:55;;;;;;;5.78;1.50;;;;;;;;;;5017130;28;20064;-68
2023/08/30 12:58:21;;;;;;;3.70;1.48;;;;;;;;;;5024537;28;20058;-69
2023/08/30 13:00:48;;;;;;;3.83;1.20;;;;;;;;;;5019361;28;20053;-65
2023/08/30 13:03:14;;;;;;;2.13;1.23;;;;;;;;;;5010235;28;20520;-66
2023/08/30 13:05:42;;;;;;;1.92;1.30;;;;;;;;;;5023623;28;20586;-70
2023/08/30 13:08:08;;;;;;;8.82;1.38;;;;;;;;;;5007013;28;20044;-67
2023/08/30 13:10:35;;;;;;;8.77;1.27;;;;;;;;;;5017559;28;20058;-68
2023/08/30 13:13:02;;;;;;;3.88;1.23;;;;;;;;;;5028214;28;20049;-66
2023/08/30 13:15:28;;;;;;;4.95;1.55;;;;;;;;;;5024015;28;20049;-68
2023/08/30 13:17:56;;;;;;;1.75;0.80;;;;;;;;;;5026761;28;20194;-67
2023/08/30 13:20:23;;;;;;;3.03;1.40;;;;;;;;;;5022791;28;20049;-70
2023/08/30 13:22:49;;;;;;;5.85;1.33;;;;;;;;;;5023568;28;20280;-69
2023/08/30 13:25:16;;;;;;;3.63;1.20;;;;;;;;;;5011594;28;20040;-69
2023/08/30 13:27:47;;;;;;;5.45;1.23;;;;;;;;;;5025059;28;20084;-76
2023/08/30 13:30:13;;;;;;;2.38;1.20;;;;;;;;;;5016810;28;20049;-66
2023/08/30 13:32:38;;;;;;;3.78;1.30;;;;;;;;;;5014679;28;20048;-65
2023/08/30 13:35:06;;;;;;;1.63;1.10;;;;;;;;;;5026333;28;20053;-70
2023/08/30 13:37:32;;;;;;;3.03;1.30;;;;;;;;;;5002617;28;20073;-67
2023/08/30 13:39:59;;;;;;;5.30;1.10;;;;;;;;;;5017612;28;20189;-66
2023/08/30 13:42:25;;;;;;;2.55;1.10;;;;;;;;;;5000283;28;20050;-65
2023/08/30 13:44:51;;;;;;;3.25;1.38;;;;;;;;;;5018208;28;20046;-66
2023/08/30 13:47:17;;;;;;;4.60;1.20;;;;;;;;;;5022302;28;20067;-65
2023/08/30 13:49:44;;;;;;;2.40;1.20;;;;;;;;;;5012871;28;20061;-68
2023/08/30 13:52:12;;;;;;;1.95;0.98;;;;;;;;;;5015886;28;20041;-66
2023/08/30 13:54:39;;;;;;;3.75;1.27;;;;;;;;;;5024530;28;20057;-67
2023/08/30 13:57:05;;;;;;;3.10;1.05;;;;;;;;;;5022275;28;20096;-66
2023/08/30 13:59:31;;;;;;;3.75;1.30;;;;;;;;;;5018736;28;20042;-66
2023/08/30 14:01:58;;;;;;;5.43;1.10;;;;;;;;;;5003647;28;20055;-65
2023/08/30 14:05:04;;;;;;;5.07;1.40;;;;;;;;;;5020301;28;20053;-66
2023/08/30 14:08:45;;;;;;;2.72;1.05;;;;;;;;;;5020430;28;20033;-68
2023/08/30 14:12:26;;;;;;;2.13;1.10;;;;;;;;;;5018964;28;20095;-67
2023/08/30 14:16:09;;;;;;;1.73;1.10;;;;;;;;;;5018449;28;20049;-64
2023/08/30 14:19:48;;;;;;;3.17;1.08;;;;;;;;;;5023952;28;20041;-69
2023/08/30 14:23:28;;;;;;;5.00;1.25;;;;;;;;;;5022949;28;20049;-67
2023/08/30 14:27:10;;;;;;;2.08;1.10;;;;;;;;;;5020152;28;20037;-69
2023/08/30 14:30:50;;;;;;;3.17;0.90;;;;;;;;;;5022416;28;20404;-69
2023/08/30 14:34:32;;;;;;;1.77;1.00;;;;;;;;;;5022575;28;20045;-70
2023/08/30 14:38:12;;;;;;;5.40;0.95;;;;;;;;;;5019648;28;20038;-67
2023/08/30 14:41:52;;;;;;;0.88;0.65;;;;;;;;;;5012500;28;20061;-67
2023/08/30 14:45:35;;;;;;;32.28;2.13;;;;;;;;;;5025075;28;20087;-66
2023/08/30 14:49:16;;;;;;;4.65;1.25;;;;;;;;;;5017511;28;20413;-71
2023/08/30 14:52:56;;;;;;;4.50;1.50;;;;;;;;;;5022716;28;20045;-66
2023/08/30 14:56:37;;;;;;;4.38;1.13;;;;;;;;;;5020720;28;20439;-66
2023/08/30 15:00:19;;;;;;;2.10;0.85;;;;;;;;;;5013480;28;20414;-68
2023/08/30 15:03:59;;;;;;;6.18;1.30;;;;;;;;;;5016534;28;20076;-66
2023/08/30 15:07:39;;;;;;;2.42;1.00;;;;;;;;;;5023304;28;20440;-66
2023/08/30 15:11:20;;;;;;;3.30;1.30;;;;;;;;;;5019063;28;20136;-67
2023/08/30 15:15:01;;;;;;;4.72;1.50;;;;;;;;;;5023279;28;20044;-69
2023/08/30 15:18:42;;;;;;;2.25;1.00;;;;;;;;;;5023008;28;20041;-67
2023/08/30 15:22:22;;;;;;;2.28;1.02;;;;;;;;;;5027453;28;20053;-67
2023/08/30 15:26:05;;;;;;;5.07;1.30;;;;;;;;;;5017195;28;20050;-67
2023/08/30 15:29:47;;;;;;;3.30;1.10;;;;;;;;;;5018417;28;20112;-68
2023/08/30 15:33:27;;;;;;;7.28;1.10;;;;;;;;;;5018343;28;20408;-67
2023/08/30 15:37:07;;;;;;;6.70;1.30;;;;;;;;;;5024664;28;20107;-67
2023/08/30 15:40:47;;;;;;;2.05;1.00;;;;;;;;;;5026470;28;20111;-67
2023/08/30 15:44:28;;;;;;;3.85;0.90;;;;;;;;;;4993763;28;20490;-65
2023/08/30 15:48:08;;;;;;;1.58;0.90;;;;;;;;;;5001317;28;20058;-68
2023/08/30 15:51:48;;;;;;;6.30;1.85;;;;;;;;;;4996608;28;20095;-69
2023/08/30 15:55:30;;;;;;;2.03;0.90;;;;;;;;;;4998619;28;20061;-66
2023/08/30 15:59:09;;;;;;;3.22;1.00;;;;;;;;;;4998511;28;20057;-67
2023/08/30 16:02:53;;;;;;;2.97;0.90;;;;;;;;;;4998695;28;20061;-67
2023/08/30 16:06:34;;;;;;;2.08;1.00;;;;;;;;;;4993976;28;20406;-67
2023/08/30 16:10:18;;;;;;;4.95;1.00;;;;;;;;;;5004118;28;20053;-67
2023/08/30 16:13:58;;;;;;;2.50;1.02;;;;;;;;;;5005700;28;20046;-63
2023/08/30 16:17:40;;;;;;;3.45;0.80;;;;;;;;;;4991331;28;20042;-65
2023/08/30 16:21:21;;;;;;;2.22;1.30;;;;;;;;;;5002494;28;20053;-68
2023/08/30 16:25:05;;;;;;;3.38;1.30;;;;;;;;;;4994523;28;20042;-66
2023/08/30 16:28:46;;;;;;;3.17;0.80;;;;;;;;;;4995107;28;20178;-68
2023/08/30 16:32:29;;;;;;;4.22;0.90;;;;;;;;;;4999125;28;20053;-69
2023/08/30 16:36:09;;;;;;;3.42;1.15;;;;;;;;;;5003802;28;20046;-69
2023/08/30 16:39:50;;;;;;;3.17;0.88;;;;;;;;;;5002545;28;20386;-71
2023/08/30 16:43:30;;;;;;;4.18;0.90;;;;;;;;;;5021981;28;20085;-66
2023/08/30 16:47:12;;;;;;;1.92;0.90;;;;;;;;;;5018144;28;20045;-68
2023/08/30 16:50:52;;;;;;;2.67;1.20;;;;;;;;;;5017287;28;20056;-70
2023/08/30 16:54:32;;;;;;;2.42;1.40;;;;;;;;;;5026700;28;20050;-71
2023/08/30 16:58:13;;;;;;;2.30;0.95;;;;;;;;;;5029034;28;20041;-69
2023/08/30 17:01:53;;;;;;;3.70;0.90;;;;;;;;;;5014262;28;20037;-67
2023/08/30 17:05:33;;;;;;;4.85;1.00;;;;;;;;;;5022818;28;20110;-65
2023/08/30 17:09:14;;;;;;;2.13;0.75;;;;;;;;;;5026843;28;20107;-66
2023/08/30 17:12:57;;;;;;;3.42;0.93;;;;;;;;;;5019716;28;20045;-67
2023/08/30 17:16:35;;;;;;;2.55;0.90;;;;;;;;;;5022050;28;20037;-65
2023/08/30 17:20:15;;;;;;;2.95;0.80;;;;;;;;;;5018715;28;20056;-66
2023/08/30 17:23:55;;;;;;;2.33;0.88;;;;;;;;;;5023032;28;20413;-68
2023/08/30 17:27:35;;;;;;;3.67;1.10;;;;;;;;;;5018309;28;20091;-69
2023/08/30 17:31:22;;;;;;;3.55;1.25;;;;;;;;;;5019995;28;20057;-69
2023/08/30 17:34:57;;;;;;;6.05;1.08;;;;;;;;;;5021019;28;20128;-67
2023/08/30 17:38:39;;;;;;;3.15;0.80;;;;;;;;;;5012757;28;20081;-67
2023/08/30 17:41:58;;;;;;;7.32;1.25;;;;;;;;;;5022416;28;20094;-68
2023/08/30 17:44:27;;;;;;;4.43;1.15;;;;;;;;;;5011069;28;20044;-68
2023/08/30 17:46:53;;;;;;;3.58;1.10;;;;;;;;;;5024069;28;20038;-67
2023/08/30 17:49:19;;;;;;;2.65;1.30;;;;;;;;;;5018570;28;20058;-70
2023/08/30 17:51:46;;;;;;;3.45;1.17;;;;;;;;;;4994309;28;20464;-68
2023/08/30 17:54:13;;;;;;;2.95;1.30;;;;;;;;;;5024894;28;20144;-70
2023/08/30 17:56:39;;;;;;;2.08;1.40;;;;;;;;;;5022433;28;20050;-67
2023/08/30 17:59:07;;;;;;;4.53;1.10;;;;;;;;;;5026673;28;20081;-67
2023/08/30 18:01:35;;;;;;;3.45;1.33;;;;;;;;;;5026221;28;20068;-67